Time;durP1;ratioP1;P1;durP2;ratioP2;P2;SDS_P1;SDS_P2;PMS_P1;PMS_P2;Temp;Humidity;BMP_temperature;BMP_pressure;BME280_temperature;BME280_humidity;BME280_pressure;Samples;Min_cycle;Max_cycle;Signal;HPM_P1;HPM_P2
2021/12/03 00:01:22;;;;;;;25.30;15.40;;;3.10;99.90;;;0.53;100.00;100021.53;5037550;28;20115;-86
2021/12/03 00:03:51;;;;;;;24.27;15.88;;;3.20;99.90;;;0.47;100.00;100018.53;5024628;28;20045;-86
2021/12/03 00:06:21;;;;;;;24.88;15.80;;;3.00;99.90;;;0.47;100.00;100015.84;5049511;28;20124;-86
2021/12/03 00:08:48;;;;;;;27.35;16.55;;;3.00;99.90;;;0.43;100.00;100009.06;5047805;28;20052;-85
2021/12/03 00:11:16;;;;;;;26.48;15.80;;;3.00;99.90;;;0.45;100.00;100013.31;5049330;28;20041;-86
2021/12/03 00:13:44;;;;;;;21.88;14.98;;;3.00;99.90;;;0.44;100.00;100010.75;5049142;28;20072;-86
2021/12/03 00:16:13;;;;;;;23.38;15.45;;;3.00;99.90;;;0.39;100.00;100011.16;5029783;28;20472;-85
2021/12/03 00:18:40;;;;;;;23.85;16.38;;;3.00;99.90;;;0.42;100.00;100008.22;5043476;28;20061;-85
2021/12/03 00:21:10;;;;;;;28.38;16.95;;;3.00;99.90;;;0.48;100.00;100012.22;5048994;28;20513;-85
2021/12/03 00:23:39;;;;;;;26.75;17.50;;;3.10;99.90;;;0.47;100.00;100010.50;5048600;28;20037;-85
2021/12/03 00:26:09;;;;;;;29.75;16.50;;;2.90;99.90;;;0.45;100.00;100015.13;5048931;28;20114;-85
2021/12/03 00:28:37;;;;;;;25.13;16.33;;;3.00;99.90;;;0.41;100.00;100008.34;5049357;28;20055;-85
2021/12/03 00:31:05;;;;;;;28.75;17.70;;;3.00;99.90;;;0.38;100.00;100004.97;5048930;28;20041;-85
2021/12/03 00:33:35;;;;;;;31.08;17.67;;;3.00;99.90;;;0.39;100.00;100003.13;5046917;28;20061;-85
2021/12/03 00:36:05;;;;;;;30.10;17.58;;;3.00;99.90;;;0.34;100.00;100006.22;5040772;28;20037;-86
2021/12/03 00:38:36;;;;;;;33.88;19.50;;;2.90;99.90;;;0.33;100.00;100011.69;5049070;28;20052;-85
2021/12/03 00:41:07;;;;;;;34.30;18.88;;;2.90;99.90;;;0.27;100.00;100017.56;5048879;28;20052;-85
2021/12/03 00:43:39;;;;;;;32.08;18.90;;;2.90;99.90;;;0.28;100.00;100022.78;5028980;28;20069;-85
2021/12/03 00:46:09;;;;;;;34.03;20.27;;;2.90;99.90;;;0.30;100.00;100028.84;5028633;28;20124;-85
2021/12/03 00:48:37;;;;;;;32.72;19.42;;;2.80;99.90;;;0.27;100.00;100020.25;5040271;28;20131;-85
2021/12/03 00:51:05;;;;;;;32.33;20.10;;;2.80;99.90;;;0.27;100.00;100023.78;5022629;28;20501;-85
2021/12/03 00:53:33;;;;;;;34.90;20.77;;;2.80;99.90;;;0.32;100.00;100021.53;5048422;28;20411;-85
2021/12/03 00:56:00;;;;;;;33.63;20.50;;;2.80;99.90;;;0.36;100.00;100024.78;5048320;28;20861;-85
2021/12/03 00:58:29;;;;;;;34.47;20.23;;;2.80;99.90;;;0.41;100.00;100033.28;5048585;28;20073;-85
2021/12/03 01:00:56;;;;;;;36.90;21.27;;;2.90;99.90;;;0.48;100.00;100029.13;5048581;28;20041;-85
2021/12/03 01:03:24;;;;;;;35.53;22.40;;;2.90;99.90;;;0.54;100.00;100019.72;5049898;28;20098;-86
2021/12/03 01:05:51;;;;;;;39.58;22.67;;;2.90;99.90;;;0.64;100.00;100028.63;5041236;28;20124;-85
2021/12/03 01:08:18;;;;;;;35.58;21.92;;;2.90;99.90;;;0.74;100.00;100034.91;5048364;28;20055;-86
2021/12/03 01:10:46;;;;;;;35.78;22.40;;;2.90;99.90;;;0.81;100.00;100029.84;5048193;28;20818;-84
2021/12/03 01:13:13;;;;;;;34.75;22.50;;;3.00;99.90;;;0.81;100.00;100040.56;5048156;28;20568;-85
2021/12/03 01:15:43;;;;;;;33.60;22.35;;;3.00;99.90;;;0.86;100.00;100042.84;5029386;28;20144;-85
2021/12/03 01:18:12;;;;;;;40.22;23.95;;;3.00;99.90;;;0.88;100.00;100051.59;5046894;28;20068;-85
2021/12/03 01:20:42;;;;;;;41.58;23.75;;;3.00;99.90;;;0.89;100.00;100047.94;5054392;28;20135;-86
2021/12/03 01:23:12;;;;;;;45.75;24.58;;;3.00;99.90;;;0.91;100.00;100062.88;5039273;28;20049;-85
2021/12/03 01:25:40;;;;;;;45.85;25.55;;;3.00;99.90;;;0.93;100.00;100060.06;5027965;28;20045;-85
2021/12/03 01:28:09;;;;;;;42.75;24.00;;;3.10;99.90;;;0.96;100.00;100060.66;5030252;28;20057;-85
2021/12/03 01:30:37;;;;;;;44.50;25.50;;;3.10;99.90;;;1.04;100.00;100065.34;5048032;28;20063;-85
2021/12/03 01:33:07;;;;;;;42.95;26.13;;;3.20;99.90;;;1.06;100.00;100060.69;5047692;28;20091;-85
2021/12/03 01:35:35;;;;;;;47.38;26.73;;;3.20;99.90;;;1.03;100.00;100065.47;5030805;28;20060;-85
2021/12/03 01:38:03;;;;;;;49.15;26.70;;;3.20;99.90;;;0.99;100.00;100059.56;5025025;28;20041;-85
2021/12/03 01:40:33;;;;;;;51.22;27.90;;;3.20;99.90;;;0.98;100.00;100058.69;5048102;28;20041;-85
2021/12/03 01:43:03;;;;;;;43.47;26.45;;;3.20;99.90;;;1.01;100.00;100062.94;5052005;28;20057;-85
2021/12/03 01:45:33;;;;;;;48.88;26.83;;;3.20;99.90;;;1.05;100.00;100061.69;5051944;28;20407;-85
2021/12/03 01:48:02;;;;;;;51.97;26.73;;;3.20;99.90;;;1.07;100.00;100062.41;5051868;28;20053;-85
2021/12/03 01:50:40;;;;;;;57.00;28.67;;;3.20;99.90;;;1.13;100.00;100064.53;5051851;28;20076;-85
2021/12/03 01:53:08;;;;;;;45.92;26.15;;;3.30;99.90;;;1.19;100.00;100067.66;5051888;28;20072;-85
2021/12/03 01:55:36;;;;;;;45.33;25.88;;;3.40;99.90;;;1.24;100.00;100062.72;5046533;28;20136;-85
2021/12/03 01:58:04;;;;;;;48.72;27.15;;;3.30;99.90;;;1.21;100.00;100063.00;5039778;28;20069;-85
2021/12/03 02:00:38;;;;;;;47.55;27.10;;;3.30;99.90;;;1.19;100.00;100055.09;5030270;28;20037;-85
2021/12/03 02:03:06;;;;;;;46.58;27.10;;;3.40;99.90;;;1.25;100.00;100059.06;5014059;28;20053;-86
2021/12/03 02:05:37;;;;;;;47.72;26.27;;;3.40;99.90;;;1.26;100.00;100060.78;5031557;28;20585;-86
2021/12/03 02:08:05;;;;;;;47.22;27.17;;;3.40;99.90;;;1.28;100.00;100058.81;5032037;28;20049;-85
2021/12/03 02:10:33;;;;;;;48.55;27.38;;;3.50;99.90;;;1.32;100.00;100065.59;5031615;28;20580;-85
2021/12/03 02:13:01;;;;;;;48.53;27.17;;;3.40;99.90;;;1.35;100.00;100059.94;5022086;28;20413;-85
2021/12/03 02:15:29;;;;;;;52.70;28.70;;;3.50;99.90;;;1.38;100.00;100059.69;5042851;28;20122;-86
2021/12/03 02:17:56;;;;;;;52.80;28.48;;;3.50;99.90;;;1.36;100.00;100050.94;5051297;28;20068;-86
2021/12/03 02:20:24;;;;;;;51.75;27.67;;;3.50;99.90;;;1.33;100.00;100060.09;5051361;28;20045;-86
2021/12/03 02:22:53;;;;;;;59.88;29.00;;;3.50;99.90;;;1.37;100.00;100052.59;5051412;28;20041;-86
2021/12/03 02:25:24;;;;;;;55.53;28.67;;;3.50;99.90;;;1.37;100.00;100047.25;5050885;28;20076;-86
2021/12/03 02:27:57;;;;;;;50.10;28.20;;;3.50;99.90;;;1.38;100.00;100054.31;5051197;28;20045;-85
2021/12/03 02:30:25;;;;;;;54.20;27.55;;;3.60;99.90;;;1.36;100.00;100046.41;5055802;28;20138;-86
2021/12/03 02:32:56;;;;;;;51.28;29.20;;;3.50;99.90;;;1.40;100.00;100049.66;5042777;28;20131;-85
2021/12/03 02:35:26;;;;;;;51.97;28.85;;;3.50;99.90;;;1.39;100.00;100045.31;5031263;28;20679;-86
2021/12/03 02:37:55;;;;;;;56.35;29.42;;;3.60;99.90;;;1.39;100.00;100050.66;5031298;28;20424;-85
2021/12/03 02:40:25;;;;;;;50.75;28.45;;;3.60;99.90;;;1.43;100.00;100054.75;5013710;28;20052;-85
2021/12/03 02:42:53;;;;;;;59.78;29.48;;;3.60;99.90;;;1.42;100.00;100054.91;5046085;28;20136;-86
2021/12/03 02:45:21;;;;;;;55.17;29.02;;;3.60;99.90;;;1.43;100.00;100051.22;5048916;28;20102;-85
2021/12/03 02:47:49;;;;;;;60.53;30.73;;;3.60;99.90;;;1.44;100.00;100052.94;5037558;28;20037;-86
2021/12/03 02:50:18;;;;;;;60.60;29.63;;;3.60;99.90;;;1.43;100.00;100046.72;5030872;28;20041;-86
2021/12/03 02:52:51;;;;;;;56.80;29.65;;;3.60;99.90;;;1.44;100.00;100052.94;5030977;28;20046;-85
2021/12/03 02:55:20;;;;;;;57.75;29.58;;;3.60;99.90;;;1.41;100.00;100047.81;5030685;28;20077;-85
2021/12/03 02:57:48;;;;;;;69.68;31.20;;;3.60;99.90;;;1.42;100.00;100049.53;5030981;28;20494;-86
2021/12/03 03:00:19;;;;;;;55.50;29.65;;;3.70;99.90;;;1.40;100.00;100043.47;5012714;28;20065;-86
2021/12/03 03:02:47;;;;;;;56.35;29.17;;;3.60;99.90;;;1.43;100.00;100052.09;5030883;28;20471;-85
2021/12/03 03:05:17;;;;;;;73.15;32.25;;;3.60;99.90;;;1.47;100.00;100055.34;5030358;28;20120;-85
2021/12/03 03:07:45;;;;;;;57.58;30.30;;;3.60;99.90;;;1.51;100.00;100060.28;5012989;28;20103;-86
2021/12/03 03:10:19;;;;;;;67.53;30.95;;;3.70;99.90;;;1.55;100.00;100050.13;5013029;28;20485;-86
2021/12/03 03:12:47;;;;;;;65.18;31.98;;;3.60;99.90;;;1.56;100.00;100055.34;5030735;28;20600;-86
2021/12/03 03:15:17;;;;;;;61.78;30.17;;;3.70;99.90;;;1.56;100.00;100062.53;5012529;28;20045;-86
2021/12/03 03:17:45;;;;;;;65.65;30.73;;;3.70;99.90;;;1.52;100.00;100063.81;5041715;28;20524;-85
2021/12/03 03:20:14;;;;;;;68.68;32.42;;;3.70;99.90;;;1.47;100.00;100068.75;5043799;28;20154;-86
2021/12/03 03:22:42;;;;;;;62.25;30.88;;;3.60;99.90;;;1.46;100.00;100067.88;5050329;28;20055;-85
2021/12/03 03:25:15;;;;;;;66.07;31.00;;;3.70;99.90;;;1.48;100.00;100067.75;5049614;28;20390;-86
2021/12/03 03:27:43;;;;;;;58.08;28.55;;;3.70;99.90;;;1.50;100.00;100079.19;5050174;28;20037;-85
2021/12/03 03:30:14;;;;;;;68.65;30.42;;;3.70;99.90;;;1.57;100.00;100064.25;5050015;28;20069;-85
2021/12/03 03:32:42;;;;;;;;;;;3.70;99.90;;;1.55;100.00;100066.22;5050727;28;20079;-86
2021/12/03 03:35:10;;;;;;;62.67;27.58;;;3.70;99.90;;;1.53;100.00;100058.31;5041908;28;19924;-85
2021/12/03 03:37:38;;;;;;;74.32;30.05;;;3.80;99.90;;;1.55;100.00;100053.66;5046996;28;20124;-86
2021/12/03 03:40:08;;;;;;;72.68;30.27;;;3.70;99.90;;;1.55;100.00;100059.00;5050029;28;20080;-85
2021/12/03 03:42:36;;;;;;;62.65;28.15;;;3.70;99.90;;;1.58;100.00;100049.88;5050191;28;20506;-85
2021/12/03 03:45:09;;;;;;;60.38;28.17;;;3.80;99.90;;;1.58;100.00;100057.03;5049716;28;20043;-85
2021/12/03 03:47:38;;;;;;;68.07;27.70;;;3.80;99.90;;;1.58;100.00;100052.53;5050167;28;20501;-85
2021/12/03 03:50:08;;;;;;;56.83;26.98;;;3.80;99.90;;;1.53;100.00;100061.00;5049737;28;20040;-85
2021/12/03 03:52:37;;;;;;;68.43;27.63;;;3.80;99.90;;;1.50;100.00;100058.56;5055605;28;20087;-85
2021/12/03 03:55:06;;;;;;;68.55;27.05;;;3.80;99.90;;;1.51;100.00;100060.28;5023736;28;20087;-85
2021/12/03 03:57:33;;;;;;;61.40;26.30;;;3.80;99.90;;;1.52;100.00;100056.63;5049487;28;20075;-86
2021/12/03 04:00:00;;;;;;;63.15;25.88;;;3.80;99.90;;;1.59;100.00;100045.34;5049543;28;20067;-85
2021/12/03 04:02:28;;;;;;;54.92;24.42;;;3.80;99.90;;;1.60;100.00;100038.97;5049700;28;20044;-85
2021/12/03 04:04:56;;;;;;;60.10;25.73;;;3.80;99.90;;;1.62;100.00;100034.31;5049337;28;20091;-86
2021/12/03 04:07:24;;;;;;;60.35;26.38;;;3.80;99.90;;;1.65;100.00;100024.16;5031415;28;20048;-85
2021/12/03 04:09:51;;;;;;;59.38;26.25;;;3.80;99.90;;;1.63;100.00;100015.41;5029648;28;20410;-84
2021/12/03 04:12:18;;;;;;;64.95;27.10;;;3.80;99.90;;;1.66;100.00;100015.13;5043497;28;20072;-85
2021/12/03 04:14:45;;;;;;;53.75;24.95;;;3.80;99.90;;;1.67;100.00;100016.81;5049212;28;20037;-86
2021/12/03 04:17:13;;;;;;;59.10;24.98;;;3.90;99.90;;;1.69;100.00;100011.31;5049596;28;20120;-86
2021/12/03 04:19:43;;;;;;;54.33;24.70;;;3.90;99.90;;;1.69;100.00;100003.28;5049213;28;20516;-86
2021/12/03 04:22:15;;;;;;;56.67;25.20;;;3.90;99.90;;;1.75;100.00;100002.72;5049414;28;20045;-86
2021/12/03 04:24:42;;;;;;;58.63;26.05;;;3.90;99.90;;;1.73;100.00;99999.31;5049013;28;20124;-86
2021/12/03 04:27:09;;;;;;;69.63;27.23;;;3.90;99.90;;;1.78;100.00;100007.81;5044388;28;20121;-85
2021/12/03 04:29:37;;;;;;;62.78;26.50;;;3.90;99.90;;;1.80;100.00;100010.34;5045490;28;20132;-85
2021/12/03 04:32:07;;;;;;;60.78;25.60;;;3.90;99.90;;;1.82;100.00;100008.38;5048995;28;20143;-86
2021/12/03 04:34:35;;;;;;;60.17;24.90;;;3.90;99.90;;;1.82;100.00;100019.94;5034960;28;20064;-85
2021/12/03 04:37:03;;;;;;;58.08;24.75;;;4.00;99.90;;;1.84;100.00;100012.59;5029108;28;20133;-88
2021/12/03 04:39:32;;;;;;;52.90;22.80;;;4.00;99.90;;;1.78;100.00;99998.91;5012031;28;20060;-89
2021/12/03 04:42:00;;;;;;;55.67;22.40;;;4.00;99.90;;;1.81;100.00;99994.13;5012106;28;20116;-91
2021/12/03 04:44:28;;;;;;;47.92;23.10;;;4.00;99.90;;;1.82;100.00;99982.38;5028462;28;20098;-92
2021/12/03 04:46:55;;;;;;;52.38;22.73;;;4.00;99.90;;;1.79;100.00;99974.63;5021127;28;20078;-91
2021/12/03 04:49:23;;;;;;;52.35;20.90;;;4.00;99.90;;;1.79;100.00;99987.19;5047207;28;20041;-88
2021/12/03 04:51:50;;;;;;;43.75;20.95;;;4.00;99.90;;;1.82;100.00;99995.78;5048792;28;20134;-89
2021/12/03 04:54:17;;;;;;;55.53;22.67;;;4.00;99.90;;;1.81;100.00;99986.06;5048330;28;20114;-88
2021/12/03 04:56:46;;;;;;;51.25;22.50;;;4.00;99.90;;;1.86;100.00;99991.84;5048858;28;20144;-88
2021/12/03 04:59:14;;;;;;;48.92;20.52;;;4.00;99.90;;;1.87;100.00;99998.91;5048627;28;20102;-89
2021/12/03 05:01:41;;;;;;;43.03;20.58;;;4.00;99.90;;;1.86;100.00;99989.16;5047375;28;20120;-90
2021/12/03 05:04:09;;;;;;;39.53;20.25;;;4.00;99.90;;;1.88;100.00;99994.38;5039874;28;20064;-91
2021/12/03 05:06:53;;;;;;;42.90;19.58;;;4.00;99.90;;;1.96;100.00;100002.56;5048566;28;20061;-90
2021/12/03 05:09:44;;;;;;;39.13;19.80;;;4.10;99.90;;;1.92;100.00;100003.84;5029933;28;20398;-90
2021/12/03 05:12:13;;;;;;;;;;;4.10;99.90;;;1.90;100.00;100000.47;5022507;28;20711;-91
2021/12/03 05:14:40;;;;;;;43.25;19.15;;;4.10;99.90;;;1.87;100.00;99998.91;5048839;28;19924;-92
2021/12/03 05:17:08;;;;;;;48.15;20.58;;;4.10;99.90;;;1.89;100.00;99999.63;5029480;28;20045;-91
2021/12/03 05:19:53;;;;;;;;;;;;;;;;;;;;;
2021/12/03 05:22:47;;;;;;;41.20;18.70;;;4.10;99.90;;;1.99;100.00;100014.88;5029392;28;20049;-92
2021/12/03 05:25:55;;;;;;;41.33;18.85;;;4.10;99.90;;;1.90;100.00;99995.94;5030098;28;20046;-91
2021/12/03 05:28:54;;;;;;;43.42;18.77;;;4.10;99.90;;;1.92;100.00;99999.34;4971283;28;20080;-93
2021/12/03 05:32:02;;;;;;;33.78;18.27;;;4.10;99.90;;;2.00;100.00;99998.63;5013938;28;20045;-91
2021/12/03 05:34:32;;;;;;;42.97;18.20;;;4.20;99.90;;;1.95;100.00;100003.56;5043599;28;20052;-90
2021/12/03 05:37:00;;;;;;;37.28;17.40;;;4.10;99.90;;;1.99;100.00;100020.25;5031684;28;20069;-93
2021/12/03 05:39:29;;;;;;;35.80;18.23;;;4.10;99.90;;;1.93;100.00;100006.38;5011102;28;20053;-92
2021/12/03 05:41:58;;;;;;;38.30;18.00;;;4.10;99.90;;;1.97;100.00;100008.81;5034687;28;20049;-90
2021/12/03 05:44:37;;;;;;;42.75;17.58;;;4.10;99.90;;;1.97;100.00;100009.66;5030400;28;20466;-92
2021/12/03 05:47:10;;;;;;;35.85;17.58;;;4.10;99.90;;;2.00;100.00;100016.56;5031734;28;20057;-92
2021/12/03 05:49:43;;;;;;;38.70;18.80;;;4.20;99.90;;;2.01;100.00;100007.53;5031617;28;20072;-91
2021/12/03 05:56:03;;;;;;;;;;;;;;;;;;;;;
2021/12/03 05:58:41;;;;;;;35.65;18.15;;;4.20;99.90;;;2.05;100.00;99999.03;5013562;28;20080;-90
2021/12/03 06:01:18;;;;;;;40.67;17.75;;;4.20;99.90;;;2.06;100.00;100007.97;5011411;28;20050;-93
2021/12/03 06:04:03;;;;;;;39.42;18.65;;;4.20;99.90;;;2.13;100.00;100006.38;5028663;28;20136;-93
2021/12/03 06:07:05;;;;;;;39.85;18.52;;;4.30;99.90;;;2.08;100.00;99993.41;5011784;28;20140;-93
2021/12/03 06:09:35;;;;;;;48.28;19.85;;;4.30;99.90;;;2.12;100.00;100000.16;4991674;28;20062;-86
2021/12/03 06:12:03;;;;;;;42.77;18.67;;;4.30;99.90;;;2.14;100.00;99995.50;4966901;28;20082;-89
2021/12/03 06:14:39;;;;;;;43.15;19.40;;;4.30;99.90;;;2.11;100.00;99992.25;4966347;28;20109;-89
2021/12/03 06:17:12;;;;;;;42.25;19.77;;;4.30;99.90;;;2.11;100.00;99986.88;4966551;28;20081;-89
2021/12/03 06:19:40;;;;;;;40.47;20.00;;;4.30;99.90;;;2.18;100.00;99992.53;4952083;28;20061;-88
2021/12/03 06:22:08;;;;;;;44.72;20.17;;;4.30;99.90;;;2.15;100.00;99993.66;4954014;28;20145;-89
2021/12/03 06:24:35;;;;;;;47.50;20.23;;;4.20;99.90;;;2.15;100.00;100002.56;4961042;28;20081;-88
2021/12/03 06:27:08;;;;;;;45.65;18.60;;;4.30;99.90;;;2.17;100.00;100002.44;4977782;28;20046;-90
2021/12/03 06:34:54;;;;;;;42.85;19.50;;;4.30;99.90;;;2.17;100.00;100002.44;4157253;22;20046;-86
2021/12/03 06:37:21;;;;;;;43.58;19.27;;;4.30;99.90;;;2.15;100.00;100004.38;5031670;28;20781;-86
2021/12/03 06:39:48;;;;;;;41.13;18.60;;;4.30;99.90;;;2.19;100.00;100003.13;5022729;28;20100;-86
2021/12/03 06:42:15;;;;;;;39.90;19.00;;;4.30;99.90;;;2.22;100.00;100002.84;5010155;28;20145;-86
2021/12/03 06:44:43;;;;;;;39.60;19.05;;;4.40;99.90;;;2.24;100.00;100003.53;4994011;28;20121;-87
2021/12/03 06:47:11;;;;;;;47.22;20.20;;;4.30;99.90;;;2.21;100.00;99998.47;4991816;28;20042;-86
2021/12/03 06:49:38;;;;;;;49.25;19.83;;;4.30;99.90;;;2.23;100.00;100007.22;4991851;28;20100;-86
2021/12/03 06:52:11;;;;;;;40.35;19.00;;;4.40;99.90;;;2.22;100.00;100005.53;4991563;28;20069;-85
2021/12/03 06:54:38;;;;;;;45.38;20.13;;;4.40;99.90;;;2.26;100.00;100004.25;5006663;28;20478;-86
2021/12/03 06:57:08;;;;;;;46.80;20.77;;;4.40;99.90;;;2.27;100.00;100000.56;5002300;28;20046;-86
2021/12/03 06:59:37;;;;;;;45.45;19.30;;;4.40;99.90;;;2.26;100.00;99993.50;5007862;28;20057;-86
2021/12/03 07:02:05;;;;;;;48.25;21.88;;;4.40;99.90;;;2.30;100.00;100003.00;5026147;28;20145;-87
2021/12/03 07:04:33;;;;;;;47.45;21.38;;;4.40;99.90;;;2.34;100.00;99990.09;5010960;28;20042;-86
2021/12/03 07:07:00;;;;;;;46.67;20.48;;;4.40;99.90;;;2.38;100.00;99982.59;5011038;28;20188;-87
2021/12/03 07:09:28;;;;;;;46.65;22.15;;;4.40;99.90;;;2.35;100.00;99989.13;5010711;28;20089;-86
2021/12/03 07:11:58;;;;;;;50.75;21.98;;;4.40;99.90;;;2.33;100.00;99991.94;4991566;28;20141;-86
2021/12/03 07:14:25;;;;;;;52.20;22.65;;;4.40;99.90;;;2.34;100.00;99993.66;5120137;23;20040;-85
2021/12/03 07:16:53;;;;;;;57.05;21.23;;;4.50;99.90;;;2.40;100.00;99991.34;5052916;28;20052;-85
2021/12/03 07:19:20;;;;;;;51.40;19.92;;;4.50;99.90;;;2.40;100.00;99997.59;5056460;28;20048;-87
2021/12/03 07:21:47;;;;;;;50.75;20.55;;;4.50;99.90;;;2.38;100.00;99987.97;5052766;28;20147;-87
2021/12/03 07:24:15;;;;;;;60.30;22.05;;;4.50;99.90;;;2.42;100.00;99992.06;5066778;28;20044;-87
2021/12/03 07:26:43;;;;;;;48.25;21.48;;;4.50;99.90;;;2.45;100.00;99986.41;5066371;28;20044;-87
2021/12/03 07:29:11;;;;;;;47.92;21.08;;;4.50;99.90;;;2.51;100.00;99999.25;5066258;28;20153;-87
2021/12/03 07:31:38;;;;;;;50.40;20.65;;;4.60;99.90;;;2.54;100.00;99989.06;5063750;28;20045;-87
2021/12/03 07:34:06;;;;;;;57.92;21.95;;;4.60;99.90;;;2.54;100.00;99994.44;5046295;28;20056;-87
2021/12/03 07:36:33;;;;;;;48.65;20.70;;;4.60;99.90;;;2.54;100.00;99983.69;5046357;28;20098;-88
2021/12/03 07:39:00;;;;;;;45.95;20.02;;;4.60;99.90;;;2.56;100.00;99980.84;5046111;28;20045;-87
2021/12/03 07:41:28;;;;;;;44.03;19.33;;;4.60;99.90;;;2.59;100.00;99975.22;5048015;28;20051;-87
2021/12/03 07:43:56;;;;;;;44.42;19.15;;;4.60;99.90;;;2.60;100.00;99976.03;5047401;28;20097;-87
2021/12/03 07:46:24;;;;;;;49.63;21.45;;;4.70;99.90;;;2.60;100.00;99986.78;5045955;28;20141;-87
2021/12/03 07:48:51;;;;;;;49.83;19.52;;;4.70;99.90;;;2.63;100.00;99992.72;5058145;28;20048;-87
2021/12/03 07:51:19;;;;;;;50.13;19.83;;;4.70;99.90;;;2.63;100.00;99981.13;5059214;28;20053;-87
2021/12/03 07:53:46;;;;;;;40.83;18.98;;;4.70;99.90;;;2.67;100.00;99978.00;5066771;28;20048;-89
2021/12/03 07:56:14;;;;;;;40.10;18.30;;;4.70;99.90;;;2.68;100.00;99973.47;5060851;28;20135;-89
2021/12/03 07:58:48;;;;;;;46.60;18.15;;;4.70;99.90;;;2.68;100.00;99982.34;5050340;28;20103;-86
2021/12/03 08:02:12;;;;;;;44.60;16.90;;;4.80;99.90;;;2.73;100.00;99976.56;5062789;28;20102;-86
2021/12/03 08:05:08;;;;;;;49.97;17.90;;;4.80;99.90;;;2.74;100.00;99983.59;5056753;28;20662;-88
2021/12/03 08:07:35;;;;;;;46.85;17.13;;;4.80;99.90;;;2.76;100.00;99976.28;5065464;28;20517;-86
2021/12/03 08:10:47;;;;;;;35.08;14.93;;;4.80;99.90;;;2.80;100.00;99992.94;5066852;28;20099;-86
2021/12/03 08:13:14;;;;;;;44.72;15.85;;;4.80;99.90;;;2.85;100.00;99985.28;5044946;28;20055;-86
2021/12/03 08:15:42;;;;;;;27.48;13.10;;;4.80;99.90;;;2.81;100.00;99989.25;5046135;28;20213;-88
2021/12/03 08:18:09;;;;;;;37.00;13.13;;;4.90;99.90;;;2.81;100.00;99987.41;5045450;28;20060;-87
2021/12/03 08:20:38;;;;;;;39.95;13.80;;;4.90;99.90;;;2.82;100.00;99980.19;5055500;28;20044;-87
2021/12/03 08:23:05;;;;;;;32.35;12.70;;;4.90;99.90;;;2.84;100.00;99986.28;5051249;28;20057;-85
2021/12/03 08:25:33;;;;;;;29.05;11.13;;;4.90;99.90;;;2.84;100.00;99995.19;5052777;28;20052;-86
2021/12/03 08:28:07;;;;;;;28.55;11.20;;;4.90;99.90;;;2.82;100.00;99996.31;5065800;28;20048;-88
2021/12/03 08:30:34;;;;;;;29.58;10.90;;;4.90;99.90;;;2.84;100.00;99995.19;5059979;28;20733;-87
2021/12/03 08:33:27;;;;;;;25.70;9.90;;;4.90;99.90;;;2.83;100.00;99996.16;5065457;28;20052;-87
2021/12/03 08:36:00;;;;;;;28.98;9.25;;;4.90;99.90;;;2.83;100.00;99995.34;5058493;28;20052;-87
2021/12/03 08:38:28;;;;;;;23.98;8.95;;;4.90;99.90;;;2.81;100.00;100000.84;5061073;28;20068;-87
2021/12/03 08:44:59;;;;;;;23.50;7.73;;;4.90;99.90;;;2.91;100.00;99993.59;4917470;29;20165;-87
2021/12/03 08:47:49;;;;;;;24.23;7.63;;;4.90;99.90;;;2.92;100.00;99991.75;5013089;28;20073;-88
2021/12/03 08:50:26;;;;;;;20.27;7.28;;;4.90;99.90;;;2.87;100.00;99989.50;5001316;28;20057;-87
2021/12/03 08:55:54;;;;;;;23.40;7.78;;;5.00;99.90;;;2.93;100.00;99982.69;4993281;28;20054;-88
2021/12/03 08:58:21;;;;;;;24.85;8.27;;;5.00;99.90;;;2.98;100.00;99968.81;4993948;28;20131;-88
2021/12/03 09:00:49;;;;;;;26.65;6.82;;;4.90;99.90;;;3.00;100.00;99969.50;5007228;28;20057;-88
2021/12/03 09:03:16;;;;;;;21.80;6.95;;;5.00;99.90;;;3.04;100.00;99979.81;4993114;28;20069;-88
2021/12/03 09:05:46;;;;;;;25.27;7.38;;;5.00;99.90;;;3.04;100.00;99979.81;4988867;28;20038;-88
2021/12/03 09:08:17;;;;;;;20.15;6.82;;;5.00;99.90;;;3.12;100.00;99977.25;5006393;28;20913;-89
2021/12/03 09:10:44;;;;;;;;;;;5.00;99.90;;;3.15;100.00;99968.00;5008710;28;20046;-88
2021/12/03 09:13:11;;;;;;;24.00;6.75;;;5.10;99.90;;;3.19;100.00;99980.16;5007065;28;19969;-88
2021/12/03 09:15:42;;;;;;;21.17;6.70;;;5.10;99.90;;;3.20;100.00;99972.94;5007241;28;20162;-88
2021/12/03 09:18:31;;;;;;;20.15;6.90;;;5.10;99.90;;;3.25;100.00;99976.84;5024397;28;20164;-88
2021/12/03 09:21:03;;;;;;;19.27;6.47;;;5.10;99.90;;;3.23;100.00;99967.25;5035445;28;20596;-90
2021/12/03 09:23:38;;;;;;;25.42;6.53;;;5.10;99.90;;;3.26;100.00;99965.13;5066819;28;20045;-89
2021/12/03 09:26:08;;;;;;;23.65;5.95;;;5.10;99.90;;;3.27;100.00;99958.72;5045109;28;20041;-87
2021/12/03 09:28:38;;;;;;;23.07;7.33;;;5.20;99.90;;;3.34;100.00;99956.28;5045860;28;20045;-88
2021/12/03 09:31:06;;;;;;;27.58;6.70;;;5.20;99.90;;;3.39;100.00;99951.31;5062085;28;20345;-88
2021/12/03 09:33:36;;;;;;;16.23;5.93;;;5.20;99.90;;;3.38;100.00;99960.38;5045484;28;20513;-88
2021/12/03 09:36:06;;;;;;;16.67;5.68;;;5.30;99.90;;;3.37;100.00;99947.94;5055051;28;20051;-88
2021/12/03 09:38:35;;;;;;;18.08;5.47;;;5.30;99.90;;;3.39;100.00;99945.06;5065191;28;20067;-87
2021/12/03 09:41:08;;;;;;;19.35;5.30;;;5.30;99.90;;;3.34;100.00;99945.53;5064674;28;20149;-87
2021/12/03 09:43:39;;;;;;;18.70;5.50;;;5.30;99.90;;;3.36;100.00;99942.69;5065718;28;20151;-86
2021/12/03 09:46:15;;;;;;;21.85;5.47;;;5.30;99.90;;;3.40;100.00;99941.41;5063957;28;20790;-88
2021/12/03 09:48:56;;;;;;;23.45;6.97;;;5.30;99.90;;;3.45;100.00;99937.25;5059955;28;20049;-87
2021/12/03 09:51:28;;;;;;;17.75;5.35;;;5.30;99.90;;;3.47;100.00;99934.41;5044343;28;20045;-89
2021/12/03 09:56:42;;;;;;;16.75;6.18;;;5.40;99.90;;;3.50;100.00;99940.34;5059232;28;20080;-86
2021/12/03 10:02:03;;;;;;;18.60;5.75;;;5.40;99.90;;;3.52;100.00;99937.47;5059750;28;20048;-87
2021/12/03 10:13:11;;;;;;;21.58;5.90;;;5.40;99.90;;;3.57;100.00;99931.63;4971222;28;20113;-87
2021/12/03 10:15:58;;;;;;;20.70;5.80;;;5.50;99.90;;;3.60;100.00;99934.00;5066813;28;20106;-87
2021/12/03 10:18:42;;;;;;;22.85;6.22;;;5.50;99.90;;;3.67;100.00;99935.09;5047461;28;20041;-87
2021/12/03 10:21:21;;;;;;;23.17;6.65;;;5.50;99.90;;;3.73;100.00;99931.78;5066503;28;20063;-88
2021/12/03 10:29:39;;;;;;;18.55;6.35;;;5.60;99.90;;;3.83;100.00;99932.53;4992287;28;20755;-88
2021/12/03 10:32:28;;;;;;;24.20;6.28;;;5.70;99.40;;;3.84;100.00;99926.16;5057326;28;20056;-88
2021/12/03 10:38:00;;;;;;;21.48;5.70;;;5.70;99.40;;;3.89;100.00;99914.94;5068199;28;20044;-88
2021/12/03 10:49:26;;;;;;;13.80;4.95;;;5.70;98.90;;;3.91;100.00;99900.31;5008738;28;20296;-88
2021/12/03 10:52:04;;;;;;;19.55;6.57;;;5.70;98.30;;;3.92;100.00;99898.44;5038265;28;20045;-87
2021/12/03 11:06:55;;;;;;;20.52;4.68;;;5.80;98.60;;;4.01;99.92;99856.28;4977103;28;20053;-87
2021/12/03 14:38:33;;;;;;;8.25;2.60;;;6.30;92.30;;;4.37;91.67;99558.00;5062490;28;20061;-91
2021/12/03 14:41:13;;;;;;;8.25;3.00;;;6.30;92.60;;;4.39;92.13;99572.13;5068794;28;20064;-86
2021/12/03 14:44:03;;;;;;;7.00;2.65;;;6.30;92.40;;;4.40;92.07;99568.44;5060396;28;20777;-87
2021/12/03 14:47:01;;;;;;;7.47;2.65;;;6.30;92.60;;;4.37;93.33;99568.75;5084290;28;20590;-88
2021/12/03 14:53:10;;;;;;;10.52;3.25;;;6.30;92.90;;;4.26;93.94;99561.00;5029593;28;20114;-88
2021/12/03 14:55:38;;;;;;;7.38;3.08;;;6.30;93.20;;;4.24;94.58;99558.47;5068659;28;20075;-87
2021/12/03 14:58:12;;;;;;;7.53;3.70;;;6.20;93.20;;;4.25;95.35;99562.03;5028622;22;20138;-85
2021/12/03 15:00:50;;;;;;;8.15;2.90;;;6.20;93.90;;;4.17;96.47;99559.31;4982290;28;20039;-86
2021/12/03 15:06:09;;;;;;;9.57;2.97;;;6.20;94.50;;;4.10;97.78;99551.91;4986372;28;20145;-87
2021/12/03 15:08:43;;;;;;;9.80;3.78;;;6.20;94.50;;;4.05;98.76;99558.81;4990663;28;20073;-86